createdAt,value
2023-09-15T00:01:57.777Z,94.65
2023-09-15T00:06:00.675Z,94.94
2023-09-15T00:08:01.985Z,94.8
2023-09-15T00:12:04.608Z,95.13
2023-09-15T00:16:07.234Z,95.15
2023-09-15T00:18:08.992Z,95.13
2023-09-15T00:22:12.257Z,94.96
2023-09-15T00:24:13.574Z,95.02
2023-09-15T00:28:15.778Z,95.35
2023-09-15T00:32:18.720Z,95.38
2023-09-15T00:34:20.067Z,95.33
2023-09-15T00:38:22.867Z,95.15
2023-09-15T00:42:24.965Z,95.86
2023-09-15T00:44:26.263Z,95.79
2023-09-15T00:48:28.712Z,95.58
2023-09-15T00:50:30.052Z,95.57
2023-09-15T00:54:32.812Z,95.65
2023-09-15T00:58:36.369Z,95.55
2023-09-15T01:00:38.248Z,95.5
2023-09-15T01:04:41.030Z,95.71
2023-09-15T01:06:42.724Z,95.73
2023-09-15T01:10:45.774Z,95.9
2023-09-15T01:14:57.724Z,95.81
2023-09-15T01:16:50.381Z,95.71
2023-09-15T01:20:53.264Z,95.51
2023-09-15T01:24:56.334Z,95.89
2023-09-15T01:26:58.041Z,95.86
2023-09-15T01:31:01.025Z,95.97
2023-09-15T01:33:02.019Z,95.94
2023-09-15T01:35:03.064Z,95.69
2023-09-15T01:37:04.543Z,95.89
2023-09-15T01:41:07.152Z,96.08
2023-09-15T01:43:08.514Z,95.99
2023-09-15T01:45:09.638Z,95.97
2023-09-15T01:47:10.816Z,95.91
2023-09-15T01:49:12.132Z,95.96
2023-09-15T01:53:15.768Z,96.48
2023-09-15T01:55:16.997Z,96.49
2023-09-15T01:57:18.358Z,96.43
2023-09-15T01:59:20.303Z,96.48
2023-09-15T02:03:23.792Z,96.26
2023-09-15T02:05:25.223Z,96.22
2023-09-15T02:09:28.118Z,96.51
2023-09-15T02:13:31.164Z,96.49
2023-09-15T02:15:32.445Z,96.61
2023-09-15T02:19:35.072Z,96.62
2023-09-15T02:23:37.733Z,96.54
2023-09-15T02:25:38.800Z,96.5
2023-09-15T02:29:41.707Z,96.65
2023-09-15T02:31:43.430Z,96.65
2023-09-15T02:35:46.365Z,96.69
2023-09-15T02:39:48.945Z,96.56
2023-09-15T02:41:50.111Z,96.55
2023-09-15T02:45:52.766Z,96.57
2023-09-15T02:47:54.650Z,96.65
2023-09-15T02:51:57.714Z,96.71
2023-09-15T02:56:00.868Z,96.6
2023-09-15T02:58:02.724Z,96.89
2023-09-15T03:02:05.296Z,97.05
2023-09-15T03:06:08.910Z,96.98
2023-09-15T03:08:10.016Z,96.95
2023-09-15T03:12:13.817Z,96.91
2023-09-15T03:14:15.225Z,96.91
2023-09-15T03:18:17.818Z,96.91
2023-09-15T03:22:20.274Z,96.86
2023-09-15T03:24:21.792Z,96.82
2023-09-15T03:28:24.990Z,96.82
2023-09-15T03:30:26.390Z,96.78
2023-09-15T03:34:29.494Z,96.79
2023-09-15T03:38:32.079Z,96.91
2023-09-15T03:40:33.964Z,96.95
2023-09-15T03:44:36.430Z,97.01
2023-09-15T03:48:40.171Z,97.02
2023-09-15T03:50:42.014Z,97.18
2023-09-15T03:54:44.800Z,97.26
2023-09-15T03:59:31.918Z,97.25
2023-09-15T04:01:33.062Z,97.29
2023-09-15T04:05:36.082Z,97.32
2023-09-15T04:07:37.908Z,97.36
2023-09-15T04:11:40.214Z,97.31
2023-09-15T04:15:42.876Z,97.29
2023-09-15T04:17:44.667Z,97.24
2023-09-15T04:21:46.724Z,97.3
2023-09-15T04:25:49.845Z,97.3
2023-09-15T04:27:51.179Z,97.28
2023-09-15T04:31:53.361Z,97.32
2023-09-15T04:33:55.267Z,97.31
2023-09-15T04:35:57.155Z,97.33
2023-09-15T04:37:58.528Z,97.29
2023-09-15T04:42:01.007Z,97.19
2023-09-15T04:44:02.232Z,97.24
2023-09-15T04:46:03.570Z,97.22
2023-09-15T04:48:05.163Z,97.3
2023-09-15T04:50:06.966Z,97.34
2023-09-15T04:54:09.743Z,97.39
2023-09-15T04:56:10.777Z,97.36
2023-09-15T04:58:12.270Z,97.44
2023-09-15T05:00:14.374Z,97.52
2023-09-15T05:04:17.153Z,97.52
2023-09-15T05:06:18.181Z,97.54
2023-09-15T05:10:21.044Z,97.55
2023-09-15T05:14:24.730Z,97.6
2023-09-15T05:16:26.002Z,97.6
2023-09-15T05:20:28.222Z,97.58
2023-09-15T05:24:31.137Z,97.64
2023-09-15T05:26:32.770Z,97.7
2023-09-15T05:30:35.110Z,97.57
2023-09-15T05:32:36.253Z,97.52
2023-09-15T05:36:38.751Z,97.47
2023-09-15T05:40:41.727Z,97.38
2023-09-15T05:42:43.488Z,97.34
2023-09-15T05:46:46.342Z,97.36
2023-09-15T05:48:47.433Z,97.33
2023-09-15T05:52:50.275Z,97.49
2023-09-15T05:56:52.874Z,97.36
2023-09-15T05:58:53.947Z,97.31
2023-09-15T06:02:56.849Z,97.11
2023-09-15T06:06:59.658Z,95.45
2023-09-15T06:09:00.856Z,94.92
2023-09-15T06:13:03.288Z,94.64
2023-09-15T06:15:04.458Z,94.47
2023-09-15T06:19:06.985Z,91.96
2023-09-15T06:23:09.456Z,87.19
2023-09-15T06:25:11.058Z,87.34
2023-09-15T06:29:13.829Z,84.67
2023-09-15T06:31:15.322Z,86.47
2023-09-15T06:35:17.358Z,82.16
2023-09-15T06:37:18.356Z,81.5
2023-09-15T06:39:19.736Z,83.6
2023-09-15T06:41:21.033Z,81.17
2023-09-15T06:45:23.536Z,79.39
2023-09-15T06:47:25.913Z,80.73
2023-09-15T06:51:28.001Z,82.27
2023-09-15T06:55:30.485Z,81.26
2023-09-15T06:57:31.500Z,81.09
2023-09-15T07:01:33.710Z,77.79
2023-09-15T07:05:36.276Z,76.47
2023-09-15T07:07:37.593Z,76.37
2023-09-15T07:11:40.482Z,76.06
2023-09-15T07:13:42.130Z,76.11
2023-09-15T07:17:45.018Z,76.26
2023-09-15T07:21:48.527Z,75.69
2023-09-15T07:23:49.912Z,75.89
2023-09-15T07:27:52.644Z,76
2023-09-15T07:29:54.368Z,73.95
2023-09-15T07:33:57.430Z,75.88
2023-09-15T07:38:00.050Z,75.49
2023-09-15T07:40:01.426Z,73.59
2023-09-15T07:44:03.476Z,71.02
2023-09-15T07:48:06.253Z,73.15
2023-09-15T07:50:07.203Z,72.61
2023-09-15T07:54:09.706Z,77.87
2023-09-15T07:56:12.324Z,79.28
2023-09-15T08:00:15.754Z,75.92
2023-09-15T08:04:18.040Z,72.15
2023-09-15T08:06:19.143Z,72.8
2023-09-15T08:10:22.142Z,73.27
2023-09-15T08:12:22.888Z,71.25
2023-09-15T08:16:26.045Z,69.42
2023-09-15T08:20:29.187Z,69.36
2023-09-15T08:22:30.736Z,67.1
2023-09-15T08:26:43.230Z,68.71
2023-09-15T08:30:36.431Z,66.37
2023-09-15T08:32:37.392Z,68.11
2023-09-15T08:36:40.473Z,68.48
2023-09-15T08:38:41.669Z,67.43
2023-09-15T08:42:44.018Z,69.3
2023-09-15T08:46:46.845Z,73.27
2023-09-15T08:48:47.741Z,72.67
2023-09-15T08:50:49.445Z,70.45
2023-09-15T08:52:51.280Z,70.79
2023-09-15T08:54:52.513Z,71.09
2023-09-15T08:58:56.442Z,71.52
2023-09-15T09:02:58.191Z,70.04
2023-09-15T09:04:59.096Z,70.82
2023-09-15T09:09:01.404Z,70.67
2023-09-15T09:11:02.693Z,71.51
2023-09-15T09:15:06.222Z,71.09
2023-09-15T09:19:09.160Z,70.96
2023-09-15T09:21:10.901Z,71.15
2023-09-15T09:25:13.571Z,70.91
2023-09-15T09:29:16.089Z,69.44
2023-09-15T09:31:17.625Z,68.81
2023-09-15T09:35:19.842Z,69.48
2023-09-15T09:37:21.470Z,68.74
2023-09-15T09:41:24.030Z,68.99
2023-09-15T09:45:26.926Z,68
2023-09-15T09:47:28.577Z,66.61
2023-09-15T09:51:31.038Z,68.15
2023-09-15T09:53:32.178Z,68.12
2023-09-15T09:57:34.719Z,67.24
2023-09-15T10:01:37.225Z,67.38
2023-09-15T10:03:38.748Z,67.32
2023-09-15T10:07:41.261Z,64.97
2023-09-15T10:11:43.919Z,63.95
2023-09-15T10:13:45.204Z,65.7
2023-09-15T10:17:47.393Z,65.01
2023-09-15T10:19:48.510Z,63.15
2023-09-15T10:23:50.204Z,64.65
2023-09-15T10:27:52.679Z,63.96
2023-09-15T10:29:53.793Z,62.19
2023-09-15T10:31:55.134Z,62.34
2023-09-15T10:33:56.363Z,62.23
2023-09-15T10:35:58.044Z,62.43
2023-09-15T10:40:01.669Z,61.34
2023-09-15T10:44:47.714Z,62.6
2023-09-15T10:50:51.718Z,61.26
2023-09-15T10:54:54.221Z,61.43
2023-09-15T10:56:55.657Z,62.97
2023-09-15T11:00:58.842Z,60.1
2023-09-15T11:05:00.768Z,61.47
2023-09-15T11:07:01.512Z,61.82
2023-09-15T11:11:04.221Z,61.91
2023-09-15T11:13:05.675Z,60.14
2023-09-15T11:17:08.751Z,59.42
2023-09-15T11:21:10.938Z,59.24
2023-09-15T11:23:12.243Z,60.4
2023-09-15T11:27:15.519Z,59.49
2023-09-15T11:29:16.702Z,58.97
2023-09-15T11:33:19.394Z,59.83
2023-09-15T11:37:21.582Z,61.16
2023-09-15T11:39:22.402Z,59.62
2023-09-15T11:43:24.735Z,58.47
2023-09-15T11:47:27.262Z,57.52
2023-09-15T11:49:28.058Z,57.53
2023-09-15T11:53:30.427Z,57.68
2023-09-15T11:55:31.882Z,57.84
2023-09-15T11:59:34.674Z,56.41
2023-09-15T12:03:37.773Z,56.89
2023-09-15T12:05:38.867Z,56.5
2023-09-15T12:09:40.958Z,57.48
2023-09-15T12:11:42.243Z,54.82
2023-09-15T12:15:44.766Z,55.4
2023-09-15T12:19:46.820Z,54.07
2023-09-15T12:21:48.216Z,55.23
2023-09-15T12:25:50.649Z,55.7
2023-09-15T12:31:54.402Z,53.58
2023-09-15T12:35:57.584Z,54.91
2023-09-15T12:37:58.423Z,52.47
2023-09-15T12:42:13.332Z,55.55
2023-09-15T12:46:04.281Z,52.96
2023-09-15T12:48:04.969Z,52.17
2023-09-15T12:52:07.435Z,53.26
2023-09-15T12:54:09.049Z,52.92
2023-09-15T12:58:11.753Z,53.9
2023-09-15T13:02:14.742Z,53.25
2023-09-15T13:04:16.278Z,53.68
2023-09-15T13:08:18.164Z,49.51
2023-09-15T13:10:19.214Z,51.11
2023-09-15T13:14:21.345Z,44.93
2023-09-15T13:18:23.895Z,46.57
2023-09-15T13:20:25.218Z,43.73
2023-09-15T13:24:29.337Z,44.11
2023-09-15T13:28:32.136Z,43.49
2023-09-15T13:30:33.056Z,44.93
2023-09-15T13:34:36.034Z,45.98
2023-09-15T13:36:37.739Z,44.54
2023-09-15T13:40:39.826Z,45.58
2023-09-15T13:44:41.958Z,46.24
2023-09-15T13:46:43.688Z,47.02
2023-09-15T13:50:45.678Z,42.01
2023-09-15T13:52:48.861Z,43.48
2023-09-15T13:56:50.219Z,40.77
2023-09-15T14:00:52.411Z,43.53
2023-09-15T14:02:53.205Z,44.15
2023-09-15T14:06:55.707Z,46.33
2023-09-15T14:10:58.658Z,46.78
2023-09-15T14:12:59.891Z,46.68
2023-09-15T14:17:02.226Z,46.91
2023-09-15T14:19:03.412Z,48.63
2023-09-15T14:21:04.931Z,47.86
2023-09-15T14:23:06.332Z,46.93
2023-09-15T14:27:08.661Z,47.31
2023-09-15T14:29:10.356Z,46.42
2023-09-15T14:31:11.461Z,47.31
2023-09-15T14:33:12.371Z,48.45
2023-09-15T14:35:13.238Z,48.86
2023-09-15T14:39:15.998Z,48.82
2023-09-15T14:43:19.123Z,48.06
2023-09-15T14:45:20.851Z,49.24
2023-09-15T14:49:23.524Z,48.18
2023-09-15T14:51:24.736Z,48
2023-09-15T14:55:27.760Z,47.81
2023-09-15T14:59:29.726Z,48.1
2023-09-15T15:01:31.362Z,48.38
2023-09-15T15:05:34.068Z,47.02
2023-09-15T15:09:36.307Z,48.9
2023-09-15T15:11:37.658Z,46.96
2023-09-15T15:15:41.035Z,47.71
2023-09-15T15:17:42.168Z,47.65
2023-09-15T15:21:45.374Z,47.11
2023-09-15T15:23:48.593Z,46.33
2023-09-15T15:27:49.813Z,47.91
2023-09-15T15:31:51.875Z,48.54
2023-09-15T15:33:53.577Z,48.56
2023-09-15T15:37:55.578Z,49.61
2023-09-15T15:41:58.499Z,48.7
2023-09-15T15:43:59.465Z,49.53
2023-09-15T15:48:03.366Z,51.3
2023-09-15T15:52:04.554Z,51.75
2023-09-15T15:54:05.374Z,51.77
2023-09-15T15:58:07.610Z,52.96
2023-09-15T16:00:09.372Z,52.06
2023-09-15T16:02:10.999Z,51.94
2023-09-15T16:04:12.593Z,52.24
2023-09-15T16:08:15.210Z,52.12
2023-09-15T16:10:16.805Z,50.34
2023-09-15T16:12:18.457Z,50.79
2023-09-15T16:14:19.882Z,51.22
2023-09-15T16:16:20.967Z,51.39
2023-09-15T16:20:23.075Z,51.96
2023-09-15T16:24:26.138Z,52.53
2023-09-15T16:26:27.871Z,51.74
2023-09-15T16:30:31.199Z,52.24
2023-09-15T16:32:32.587Z,52.07
2023-09-15T16:36:35.072Z,52.41
2023-09-15T16:40:45.864Z,53.06
2023-09-15T16:42:38.701Z,52.56
2023-09-15T16:44:39.936Z,53.38
2023-09-15T16:46:40.834Z,53.69
2023-09-15T16:48:41.749Z,53.95
2023-09-15T16:52:44.140Z,53.78
2023-09-15T16:56:46.972Z,54.31
2023-09-15T16:58:48.144Z,54.32
2023-09-15T17:02:51.115Z,55.21
2023-09-15T17:04:52.623Z,55.33
2023-09-15T17:08:54.680Z,55.46
2023-09-15T17:12:56.809Z,56.77
2023-09-15T17:14:58.218Z,57.52
2023-09-15T17:19:00.422Z,60.71
2023-09-15T17:23:02.811Z,61.73
2023-09-15T17:25:03.687Z,62.02
2023-09-15T17:29:49.719Z,62.28
2023-09-15T17:33:52.795Z,65.26
2023-09-15T17:35:53.905Z,66.58
2023-09-15T17:39:56.617Z,67.57
2023-09-15T17:41:58.029Z,67.97
2023-09-15T17:45:59.989Z,68.89
2023-09-15T17:50:02.640Z,69.64
2023-09-15T17:52:03.499Z,70.22
2023-09-15T17:56:06.008Z,70.72
2023-09-15T18:00:08.865Z,70.79
2023-09-15T18:02:10.372Z,71.49
2023-09-15T18:06:12.972Z,71.99
2023-09-15T18:08:13.937Z,71.99
2023-09-15T18:12:16.380Z,72.75
2023-09-15T18:16:19.620Z,72.84
2023-09-15T18:18:21.378Z,72.84
2023-09-15T18:20:22.781Z,72.71
2023-09-15T18:22:23.972Z,72.8
2023-09-15T18:24:25.060Z,73.06
2023-09-15T18:28:27.760Z,72.74
2023-09-15T18:30:29.234Z,72.67
2023-09-15T18:32:31.081Z,73.24
2023-09-15T18:34:32.632Z,73.56
2023-09-15T18:38:34.661Z,73.69
2023-09-15T18:40:36.218Z,73.87
2023-09-15T18:44:38.749Z,73.47
2023-09-15T18:48:42.088Z,74.11
2023-09-15T18:50:43.259Z,74.11
2023-09-15T18:54:46.003Z,74.48
2023-09-15T18:58:49.343Z,74.86
2023-09-15T19:00:51.084Z,75.02
2023-09-15T19:04:54.183Z,75.16
2023-09-15T19:06:55.390Z,75.62
2023-09-15T19:10:58.028Z,76.29
2023-09-15T19:15:00.552Z,77.23
2023-09-15T19:17:02.433Z,77.8
2023-09-15T19:21:05.271Z,77.45
2023-09-15T19:23:06.361Z,77.22
2023-09-15T19:27:08.855Z,77.63
2023-09-15T19:31:11.599Z,77.68
2023-09-15T19:33:12.699Z,77.2
2023-09-15T19:37:15.171Z,76.35
2023-09-15T19:41:17.727Z,75.95
2023-09-15T19:43:19.115Z,76.06
2023-09-15T19:47:20.976Z,75.98
2023-09-15T19:49:22.340Z,76.07
2023-09-15T19:51:23.703Z,75.96
2023-09-15T19:53:24.740Z,75.95
2023-09-15T19:57:28.239Z,76.13
2023-09-15T19:59:29.684Z,76.04
2023-09-15T20:03:32.362Z,76.61
2023-09-15T20:05:34.039Z,76.84
2023-09-15T20:09:37.345Z,77.42
2023-09-15T20:13:40.365Z,77.98
2023-09-15T20:15:41.722Z,78.61
2023-09-15T20:19:44.584Z,79.95
2023-09-15T20:23:47.551Z,80.39
2023-09-15T20:25:48.254Z,80.51
2023-09-15T20:29:50.695Z,80.04
2023-09-15T20:31:52.120Z,80.09
2023-09-15T20:33:53.924Z,80.17
2023-09-15T20:35:55.593Z,80.62
2023-09-15T20:39:58.926Z,80.65
2023-09-15T20:42:00.184Z,80.69
2023-09-15T20:46:02.650Z,81.16
2023-09-15T20:48:03.645Z,81.16
2023-09-15T20:52:05.536Z,81.6
2023-09-15T20:56:08.302Z,82.57
2023-09-15T20:58:09.664Z,82.96
2023-09-15T21:02:12.430Z,83.66
2023-09-15T21:04:13.833Z,83.06
2023-09-15T21:08:17.165Z,82.66
2023-09-15T21:12:19.154Z,82.52
2023-09-15T21:14:20.214Z,82.63
2023-09-15T21:18:22.939Z,82.65
2023-09-15T21:22:25.860Z,82.53
2023-09-15T21:24:27.737Z,82.49
2023-09-15T21:28:30.309Z,83.45
2023-09-15T21:30:31.271Z,82.88
2023-09-15T21:34:33.662Z,82.45
2023-09-15T21:38:35.841Z,82.75
2023-09-15T21:40:37.610Z,82.92
2023-09-15T21:44:40.259Z,84.67
2023-09-15T21:46:42.098Z,84.95
2023-09-15T21:50:44.756Z,86.33
2023-09-15T21:54:47.752Z,86.09
2023-09-15T21:56:49.153Z,86.69
2023-09-15T22:00:52.345Z,86.28
2023-09-15T22:04:55.148Z,86.39
2023-09-15T22:06:56.995Z,86.29
2023-09-15T22:10:59.708Z,86.35
2023-09-15T22:13:01.151Z,86.49
2023-09-15T22:15:02.416Z,86.14
2023-09-15T22:17:03.764Z,86.07
2023-09-15T22:21:06.431Z,85.64
2023-09-15T22:23:07.356Z,85.81
2023-09-15T22:25:08.460Z,86.39
2023-09-15T22:27:09.640Z,86.65
2023-09-15T22:29:10.744Z,86.6
2023-09-15T22:33:12.880Z,86.97
2023-09-15T22:35:14.315Z,87.06
2023-09-15T22:37:15.669Z,87.25
2023-09-15T22:39:16.817Z,87.4
2023-09-15T22:43:19.129Z,87.52
2023-09-15T22:45:20.791Z,87.49
2023-09-15T22:49:24.022Z,87.36
2023-09-15T22:53:27.018Z,87.46
2023-09-15T22:55:28.073Z,87.43
2023-09-15T22:59:30.564Z,88.08
2023-09-15T23:03:33.331Z,87.15
2023-09-15T23:05:34.497Z,87.66
2023-09-15T23:09:36.876Z,87.77
2023-09-15T23:11:37.778Z,87.72
2023-09-15T23:15:40.781Z,87.66
2023-09-15T23:19:43.211Z,87.25
2023-09-15T23:21:44.790Z,87.27
2023-09-15T23:25:47.126Z,88.03
2023-09-15T23:27:48.260Z,88.51
2023-09-15T23:31:52.037Z,89.36
2023-09-15T23:35:54.052Z,89.09
2023-09-15T23:37:55.948Z,89.21
2023-09-15T23:41:58.292Z,89.33
2023-09-15T23:46:00.639Z,90
2023-09-15T23:48:02.173Z,89.63
2023-09-15T23:52:04.606Z,89.91
2023-09-15T23:54:06.088Z,89.86
2023-09-15T23:58:08.770Z,89.8
